createdAt,value
2023-05-21T00:00:17.782Z,9.87
2023-05-21T00:02:45.758Z,9.70
2023-05-21T00:05:15.500Z,11.37
2023-05-21T00:07:45.827Z,9.80
2023-05-21T00:10:14.438Z,9.70
2023-05-21T00:12:42.605Z,9.50
2023-05-21T00:15:11.491Z,9.43
2023-05-21T00:17:40.089Z,10.60
2023-05-21T00:20:09.971Z,10.47
2023-05-21T00:22:37.924Z,11.10
2023-05-21T00:25:08.052Z,8.63
2023-05-21T00:27:36.112Z,11.10
2023-05-21T00:30:04.667Z,9.27
2023-05-21T00:32:32.652Z,9.03
2023-05-21T00:35:00.688Z,10.53
2023-05-21T00:37:29.729Z,9.43
2023-05-21T00:39:58.410Z,8.63
2023-05-21T00:42:30.550Z,9.77
2023-05-21T00:44:58.779Z,8.87
2023-05-21T00:47:29.620Z,9.17
2023-05-21T00:49:57.697Z,10.30
2023-05-21T00:52:26.928Z,9.97
2023-05-21T00:54:56.135Z,10.10
2023-05-21T00:57:27.039Z,9.93
2023-05-21T00:59:56.390Z,8.20
2023-05-21T01:02:26.033Z,10.13
2023-05-21T01:04:56.324Z,8.30
2023-05-21T01:07:24.369Z,8.23
2023-05-21T01:09:54.144Z,8.77
2023-05-21T01:12:22.970Z,8.70
2023-05-21T01:14:51.154Z,8.53
2023-05-21T01:17:24.247Z,9.03
2023-05-21T01:19:54.733Z,9.73
2023-05-21T01:22:24.834Z,9.43
2023-05-21T01:24:56.094Z,9.90
2023-05-21T01:27:24.004Z,9.10
2023-05-21T01:29:51.968Z,9.77
2023-05-21T01:32:27.125Z,9.20
2023-05-21T01:35:01.605Z,9.33
2023-05-21T01:37:35.974Z,8.50
2023-05-21T01:40:12.214Z,9.80
2023-05-21T01:42:43.629Z,8.87
2023-05-21T01:45:12.736Z,8.37
2023-05-21T01:47:42.086Z,8.97
2023-05-21T01:50:11.266Z,10.03
2023-05-21T01:52:39.282Z,8.27
2023-05-21T01:55:09.116Z,8.87
2023-05-21T01:57:37.037Z,8.47
2023-05-21T02:00:05.937Z,9.43
2023-05-21T02:02:33.950Z,9.87
2023-05-21T02:05:01.890Z,8.53
2023-05-21T02:07:32.569Z,8.70
2023-05-21T02:10:00.614Z,9.43
2023-05-21T02:12:29.968Z,9.93
2023-05-21T02:14:58.388Z,9.60
2023-05-21T02:17:26.878Z,8.77
2023-05-21T02:19:54.794Z,8.77
2023-05-21T02:22:22.797Z,8.53
2023-05-21T02:24:50.721Z,9.90
2023-05-21T02:27:18.620Z,8.67
2023-05-21T02:29:47.997Z,9.13
2023-05-21T02:32:16.899Z,8.90
2023-05-21T02:34:47.331Z,9.30
2023-05-21T02:37:15.532Z,7.40
2023-05-21T02:39:43.396Z,8.93
2023-05-21T02:42:11.367Z,9.63
2023-05-21T02:44:39.251Z,9.30
2023-05-21T02:47:10.229Z,8.67
2023-05-21T02:49:38.234Z,8.03
2023-05-21T02:52:06.590Z,8.10
2023-05-21T02:54:34.512Z,9.50
2023-05-21T02:57:02.470Z,8.80
2023-05-21T02:59:30.345Z,8.47
2023-05-21T03:01:58.305Z,9.50
2023-05-21T03:04:28.367Z,8.73
2023-05-21T03:06:57.347Z,8.50
2023-05-21T03:09:25.579Z,7.90
2023-05-21T03:11:53.508Z,8.10
2023-05-21T03:14:21.827Z,8.20
2023-05-21T03:16:51.347Z,9.20
2023-05-21T03:19:20.954Z,8.70
2023-05-21T03:21:50.599Z,8.73
2023-05-21T03:24:18.758Z,9.13
2023-05-21T03:26:48.121Z,9.40
2023-05-21T03:29:16.079Z,8.07
2023-05-21T03:31:44.018Z,7.57
2023-05-21T03:34:12.202Z,7.97
2023-05-21T03:36:40.199Z,8.43
2023-05-21T03:39:09.514Z,8.90
2023-05-21T03:41:37.428Z,8.53
2023-05-21T03:44:05.915Z,8.90
2023-05-21T03:46:33.956Z,8.03
2023-05-21T03:49:02.241Z,8.73
2023-05-21T03:51:31.546Z,8.20
2023-05-21T03:54:00.202Z,8.53
2023-05-21T03:56:29.522Z,8.90
2023-05-21T03:58:57.514Z,8.07
2023-05-21T04:01:25.494Z,8.47
2023-05-21T04:03:53.742Z,9.50
2023-05-21T04:06:22.017Z,8.17
2023-05-21T04:08:49.959Z,8.37
2023-05-21T04:11:17.955Z,8.30
2023-05-21T04:13:48.172Z,9.90
2023-05-21T04:16:19.245Z,9.33
2023-05-21T04:18:47.845Z,8.37
2023-05-21T04:21:16.310Z,9.07
2023-05-21T04:23:44.268Z,8.03
2023-05-21T04:26:12.787Z,8.93
2023-05-21T04:28:43.806Z,7.93
2023-05-21T04:31:14.001Z,8.97
2023-05-21T04:33:45.885Z,8.90
2023-05-21T04:36:17.072Z,8.53
2023-05-21T04:38:44.986Z,9.20
2023-05-21T04:41:14.802Z,9.07
2023-05-21T04:43:44.052Z,9.40
2023-05-21T04:46:13.927Z,8.40
2023-05-21T04:48:42.249Z,8.70
2023-05-21T04:51:10.151Z,8.87
2023-05-21T04:53:38.801Z,8.40
2023-05-21T04:56:07.236Z,9.33
2023-05-21T04:58:35.131Z,8.67
2023-05-21T05:01:04.171Z,8.70
2023-05-21T05:03:33.564Z,8.77
2023-05-21T05:06:04.247Z,8.77
2023-05-21T05:08:32.509Z,8.90
2023-05-21T05:11:00.419Z,8.47
2023-05-21T05:13:28.277Z,8.90
2023-05-21T05:15:57.520Z,9.90
2023-05-21T05:18:25.347Z,9.10
2023-05-21T05:20:54.555Z,8.37
2023-05-21T05:23:22.412Z,8.30
2023-05-21T05:25:50.296Z,8.00
2023-05-21T05:28:18.225Z,8.93
2023-05-21T05:30:46.135Z,8.23
2023-05-21T05:33:14.075Z,9.40
2023-05-21T05:35:41.906Z,8.90
2023-05-21T05:38:11.427Z,8.40
2023-05-21T05:40:39.597Z,9.10
2023-05-21T05:43:07.900Z,9.70
2023-05-21T05:45:36.010Z,8.23
2023-05-21T05:48:04.206Z,9.13
2023-05-21T05:50:32.135Z,8.13
2023-05-21T05:53:00.084Z,7.87
2023-05-21T05:55:29.320Z,8.90
2023-05-21T05:57:57.275Z,9.00
2023-05-21T06:00:25.208Z,8.63
2023-05-21T06:02:53.237Z,9.43
2023-05-21T06:05:21.405Z,9.37
2023-05-21T06:07:49.388Z,8.00
2023-05-21T06:10:17.363Z,7.20
2023-05-21T06:12:46.702Z,9.73
2023-05-21T06:15:16.522Z,7.70
2023-05-21T06:17:44.444Z,8.40
2023-05-21T06:20:13.493Z,9.00
2023-05-21T06:22:41.605Z,8.60
2023-05-21T06:25:10.925Z,8.87
2023-05-21T06:27:39.202Z,8.93
2023-05-21T06:30:09.696Z,8.73
2023-05-21T06:32:37.761Z,8.40
2023-05-21T06:35:06.922Z,8.83
2023-05-21T06:37:34.889Z,7.37
2023-05-21T06:40:03.200Z,9.23
2023-05-21T06:42:31.089Z,9.23
2023-05-21T06:44:59.016Z,8.60
2023-05-21T06:47:28.340Z,8.33
2023-05-21T06:49:56.255Z,9.10
2023-05-21T06:52:24.091Z,8.40
2023-05-21T06:54:52.016Z,7.80
2023-05-21T06:57:19.994Z,7.60
2023-05-21T06:59:47.988Z,8.20
2023-05-21T07:02:16.182Z,7.80
2023-05-21T07:04:45.797Z,8.10
2023-05-21T07:07:13.781Z,9.20
2023-05-21T07:09:42.803Z,9.00
2023-05-21T07:12:11.113Z,8.47
2023-05-21T07:14:39.200Z,9.30
2023-05-21T07:17:07.873Z,8.53
2023-05-21T07:19:35.759Z,9.30
2023-05-21T07:22:06.033Z,8.30
2023-05-21T07:24:33.932Z,8.07
2023-05-21T07:27:04.650Z,8.97
2023-05-21T07:29:36.748Z,8.67
2023-05-21T07:32:04.914Z,7.77
2023-05-21T07:34:32.986Z,7.80
2023-05-21T07:37:01.024Z,7.87
2023-05-21T07:39:30.245Z,7.40
2023-05-21T07:41:58.142Z,8.60
2023-05-21T07:44:26.350Z,7.63
2023-05-21T07:46:54.217Z,8.13
2023-05-21T07:49:22.195Z,7.77
2023-05-21T07:51:50.638Z,7.20
2023-05-21T07:54:19.832Z,8.10
2023-05-21T07:56:49.197Z,7.27
2023-05-21T07:59:18.127Z,7.73
2023-05-21T08:01:46.329Z,8.43
2023-05-21T08:04:14.703Z,7.90
2023-05-21T08:06:42.701Z,7.70
2023-05-21T08:09:10.610Z,8.07
2023-05-21T08:11:38.621Z,9.03
2023-05-21T08:14:07.942Z,8.37
2023-05-21T08:16:37.013Z,8.80
2023-05-21T08:19:05.178Z,7.50
2023-05-21T08:21:34.595Z,8.00
2023-05-21T08:24:03.019Z,7.20
2023-05-21T08:26:31.352Z,8.03
2023-05-21T08:28:59.498Z,8.37
2023-05-21T08:31:28.857Z,7.23
2023-05-21T08:33:57.621Z,8.40
2023-05-21T08:36:26.232Z,8.00
2023-05-21T08:38:54.394Z,7.90
2023-05-21T08:41:24.262Z,7.57
2023-05-21T08:43:57.769Z,8.07
2023-05-21T08:46:26.598Z,7.23
2023-05-21T08:48:56.983Z,7.67
2023-05-21T08:51:24.988Z,7.43
2023-05-21T08:53:52.872Z,8.00
2023-05-21T08:56:21.939Z,7.13
2023-05-21T08:58:50.409Z,7.30
2023-05-21T09:01:19.437Z,6.40
2023-05-21T09:03:49.554Z,6.87
2023-05-21T09:06:19.019Z,7.17
2023-05-21T09:08:53.862Z,7.27
2023-05-21T09:11:21.944Z,6.73
2023-05-21T09:13:50.824Z,7.57
2023-05-21T09:16:18.839Z,6.50
2023-05-21T09:18:46.906Z,7.50
2023-05-21T09:21:29.562Z,7.07
2023-05-21T09:23:58.647Z,6.63
2023-05-21T09:26:27.481Z,6.43
2023-05-21T09:29:00.365Z,6.90
2023-05-21T09:31:30.421Z,7.43
2023-05-21T09:33:58.515Z,6.60
2023-05-21T09:36:29.378Z,7.07
2023-05-21T09:38:59.832Z,6.87
2023-05-21T09:41:39.280Z,6.93
2023-05-21T09:44:07.784Z,7.13
2023-05-21T09:46:40.539Z,8.20
2023-05-21T09:49:09.168Z,6.80
2023-05-21T09:51:40.820Z,8.27
2023-05-21T09:54:11.751Z,8.20
2023-05-21T09:56:41.213Z,7.67
2023-05-21T09:59:09.340Z,7.57
2023-05-21T10:01:38.764Z,6.33
2023-05-21T10:04:08.815Z,7.17
2023-05-21T10:06:44.379Z,7.70
2023-05-21T10:09:13.261Z,7.10
2023-05-21T10:11:45.874Z,7.90
2023-05-21T10:14:17.536Z,7.33
2023-05-21T10:16:46.036Z,7.40
2023-05-21T10:19:15.662Z,6.70
2023-05-21T10:21:45.806Z,6.33
2023-05-21T10:24:14.719Z,6.97
2023-05-21T10:26:42.611Z,6.73
2023-05-21T10:29:12.003Z,6.90
2023-05-21T10:31:41.109Z,8.27
2023-05-21T10:34:09.212Z,7.80
2023-05-21T10:36:38.934Z,7.70
2023-05-21T10:39:09.527Z,7.00
2023-05-21T10:41:58.425Z,7.80
2023-05-21T10:44:37.681Z,8.30
2023-05-21T10:47:32.076Z,6.80
2023-05-21T10:50:22.108Z,7.70
2023-05-21T10:53:03.168Z,8.07
2023-05-21T10:55:43.937Z,7.60
2023-05-21T10:58:59.526Z,8.07
2023-05-21T11:01:29.878Z,7.50
2023-05-21T11:03:58.758Z,6.90
2023-05-21T11:06:27.792Z,7.23
2023-05-21T11:08:56.024Z,6.93
2023-05-21T11:11:46.235Z,8.50
2023-05-21T11:14:35.493Z,6.70
2023-05-21T11:17:04.795Z,6.20
2023-05-21T11:19:37.815Z,7.13
2023-05-21T11:22:10.521Z,7.70
2023-05-21T11:24:39.968Z,7.40
2023-05-21T11:27:09.639Z,6.80
2023-05-21T11:29:41.233Z,7.97
2023-05-21T11:32:10.711Z,6.67
2023-05-21T11:34:43.429Z,7.10
2023-05-21T11:37:31.937Z,7.63
2023-05-21T11:40:18.214Z,6.17
2023-05-21T11:42:54.104Z,6.20
2023-05-21T11:45:22.996Z,7.07
2023-05-21T11:47:52.051Z,6.70
2023-05-21T11:50:20.624Z,6.30
2023-05-21T11:52:49.577Z,6.43
2023-05-21T11:55:21.955Z,5.63
2023-05-21T11:57:54.624Z,6.77
2023-05-21T12:00:23.004Z,6.00
2023-05-21T12:02:52.559Z,6.37
2023-05-21T12:05:20.894Z,7.10
2023-05-21T12:07:52.450Z,6.50
2023-05-21T12:10:23.799Z,5.90
2023-05-21T12:12:56.960Z,6.30
2023-05-21T12:15:26.279Z,6.80
2023-05-21T12:17:55.188Z,7.00
2023-05-21T12:20:23.781Z,6.60
2023-05-21T12:22:51.704Z,7.13
2023-05-21T12:25:20.950Z,6.50
2023-05-21T12:27:50.887Z,7.10
2023-05-21T12:30:20.612Z,7.47
2023-05-21T12:32:49.706Z,6.17
2023-05-21T12:35:24.417Z,6.93
2023-05-21T12:37:52.942Z,7.27
2023-05-21T12:40:22.080Z,6.03
2023-05-21T12:42:50.936Z,6.97
2023-05-21T12:45:22.613Z,6.27
2023-05-21T12:47:55.999Z,6.90
2023-05-21T12:50:24.717Z,7.97
2023-05-21T12:52:56.126Z,7.13
2023-05-21T12:55:25.626Z,6.50
2023-05-21T12:58:03.285Z,6.33
2023-05-21T13:00:33.946Z,6.57
2023-05-21T13:03:01.991Z,6.63
2023-05-21T13:05:30.041Z,6.60
2023-05-21T13:07:57.970Z,6.73
2023-05-21T13:10:25.880Z,5.47
2023-05-21T13:12:53.708Z,6.00
2023-05-21T13:15:22.004Z,6.20
2023-05-21T13:17:53.678Z,6.50
2023-05-21T13:20:26.302Z,6.97
2023-05-21T13:22:54.586Z,6.60
2023-05-21T13:25:28.644Z,6.83
2023-05-21T13:27:57.501Z,6.87
2023-05-21T13:30:25.657Z,6.50
2023-05-21T13:32:55.921Z,6.53
2023-05-21T13:35:23.957Z,6.40
2023-05-21T13:37:52.115Z,6.90
2023-05-21T13:40:20.159Z,6.60
2023-05-21T13:42:49.251Z,6.40
2023-05-21T13:45:18.825Z,6.83
2023-05-21T13:47:47.990Z,6.30
2023-05-21T13:50:17.643Z,6.60
2023-05-21T13:52:46.005Z,6.40
2023-05-21T13:55:15.728Z,6.60
2023-05-21T13:57:44.178Z,5.80
2023-05-21T14:00:15.185Z,5.80
2023-05-21T14:02:44.108Z,6.70
2023-05-21T14:05:12.698Z,6.30
2023-05-21T14:07:42.593Z,6.07
2023-05-21T14:10:11.202Z,6.13
2023-05-21T14:12:40.609Z,5.90
2023-05-21T14:15:09.130Z,5.30
2023-05-21T14:17:37.106Z,6.30
2023-05-21T14:20:06.242Z,6.50
2023-05-21T14:22:34.140Z,6.80
2023-05-21T14:25:03.459Z,6.37
2023-05-21T14:27:31.403Z,6.30
2023-05-21T14:29:59.247Z,5.47
2023-05-21T14:32:27.295Z,6.67
2023-05-21T14:34:56.780Z,6.17
2023-05-21T14:37:24.698Z,5.40
2023-05-21T14:39:52.561Z,5.90
2023-05-21T14:42:21.811Z,7.03
2023-05-21T14:44:49.686Z,6.40
2023-05-21T14:47:17.654Z,6.27
2023-05-21T14:49:46.713Z,5.40
2023-05-21T14:52:14.622Z,6.30
2023-05-21T14:54:42.573Z,5.90
2023-05-21T14:57:10.476Z,6.30
2023-05-21T14:59:39.852Z,6.13
2023-05-21T15:02:07.820Z,6.70
2023-05-21T15:04:35.763Z,5.50
2023-05-21T15:07:03.647Z,5.60
2023-05-21T15:09:31.499Z,5.70
2023-05-21T15:11:59.376Z,5.57
2023-05-21T15:14:27.208Z,6.30
2023-05-21T15:16:56.395Z,5.67
2023-05-21T15:19:24.300Z,5.50
2023-05-21T15:21:52.359Z,5.80
2023-05-21T15:24:20.294Z,5.90
2023-05-21T15:26:49.383Z,5.30
2023-05-21T15:29:17.322Z,5.30
2023-05-21T15:31:45.170Z,5.37
2023-05-21T15:34:14.618Z,6.37
2023-05-21T15:36:42.511Z,5.63
2023-05-21T15:39:10.506Z,5.87
2023-05-21T15:41:38.603Z,6.43
2023-05-21T15:44:06.666Z,5.70
2023-05-21T15:46:34.787Z,5.90
2023-05-21T15:49:02.721Z,6.03
2023-05-21T15:51:32.000Z,5.67
2023-05-21T15:53:59.994Z,5.23
2023-05-21T15:56:27.918Z,5.60
2023-05-21T15:58:58.468Z,5.27
2023-05-21T16:01:27.182Z,5.60
2023-05-21T16:03:55.266Z,5.33
2023-05-21T16:06:23.412Z,6.27
2023-05-21T16:08:52.687Z,6.47
2023-05-21T16:11:21.405Z,5.23
2023-05-21T16:13:49.246Z,6.10
2023-05-21T16:16:17.280Z,5.43
2023-05-21T16:18:45.369Z,6.03
2023-05-21T16:21:13.490Z,5.80
2023-05-21T16:23:41.424Z,6.20
2023-05-21T16:26:11.102Z,4.93
2023-05-21T16:28:39.356Z,5.10
2023-05-21T16:31:08.424Z,5.40
2023-05-21T16:33:36.320Z,5.70
2023-05-21T16:36:04.278Z,5.70
2023-05-21T16:38:32.348Z,5.83
2023-05-21T16:41:00.180Z,5.90
2023-05-21T16:43:29.394Z,5.17
2023-05-21T16:45:57.280Z,5.57
2023-05-21T16:48:25.204Z,5.37
2023-05-21T16:50:53.160Z,5.70
2023-05-21T16:53:21.211Z,6.17
2023-05-21T16:55:49.198Z,5.50
2023-05-21T16:58:17.042Z,5.40
2023-05-21T17:00:46.864Z,5.13
2023-05-21T17:03:15.987Z,5.30
2023-05-21T17:05:44.104Z,5.63
2023-05-21T17:08:12.168Z,5.43
2023-05-21T17:10:40.117Z,6.10
2023-05-21T17:13:20.671Z,5.80
2023-05-21T17:15:51.738Z,6.07
2023-05-21T17:18:19.765Z,5.23
2023-05-21T17:20:47.848Z,5.77
2023-05-21T17:23:15.927Z,5.33
2023-05-21T17:25:43.928Z,5.50
2023-05-21T17:28:12.363Z,4.90
2023-05-21T17:30:40.412Z,5.40
2023-05-21T17:33:10.411Z,5.50
2023-05-21T17:35:39.384Z,5.80
2023-05-21T17:38:08.206Z,5.43
2023-05-21T17:40:36.136Z,5.13
2023-05-21T17:43:04.333Z,5.77
2023-05-21T17:45:32.403Z,5.67
2023-05-21T17:48:00.801Z,5.27
2023-05-21T17:50:30.255Z,5.87
2023-05-21T17:52:58.172Z,5.53
2023-05-21T17:55:26.141Z,4.90
2023-05-21T17:57:54.098Z,5.60
2023-05-21T18:00:22.397Z,5.70
2023-05-21T18:02:50.447Z,4.67
2023-05-21T18:05:18.646Z,5.50
2023-05-21T18:07:48.224Z,5.17
2023-05-21T18:10:16.458Z,5.53
2023-05-21T18:12:46.207Z,5.80
2023-05-21T18:15:15.636Z,5.33
2023-05-21T18:17:43.797Z,5.07
2023-05-21T18:20:13.190Z,6.20
2023-05-21T18:22:41.230Z,5.63
2023-05-21T18:25:12.603Z,5.50
2023-05-21T18:27:40.655Z,6.30
2023-05-21T18:30:10.177Z,5.10
2023-05-21T18:32:39.446Z,5.97
2023-05-21T18:35:10.863Z,5.27
2023-05-21T18:37:42.007Z,5.40
2023-05-21T18:40:13.111Z,5.60
2023-05-21T18:42:41.296Z,6.10
2023-05-21T18:45:11.118Z,5.40
2023-05-21T18:47:40.422Z,6.20
2023-05-21T18:50:10.403Z,6.10
2023-05-21T18:52:38.353Z,5.70
2023-05-21T18:55:07.261Z,6.30
2023-05-21T18:57:37.853Z,5.40
2023-05-21T19:00:08.269Z,5.70
2023-05-21T19:02:36.532Z,5.30
2023-05-21T19:05:04.564Z,5.93
2023-05-21T19:07:32.935Z,5.80
2023-05-21T19:10:01.222Z,5.70
2023-05-21T19:12:31.293Z,6.20
2023-05-21T19:15:00.686Z,5.10
2023-05-21T19:17:29.008Z,5.60
2023-05-21T19:19:57.582Z,5.63
2023-05-21T19:22:26.363Z,5.67
2023-05-21T19:24:54.720Z,6.80
2023-05-21T19:27:22.837Z,5.50
2023-05-21T19:29:51.750Z,5.60
2023-05-21T19:32:23.570Z,5.90
2023-05-21T19:34:51.590Z,5.80
2023-05-21T19:37:19.938Z,5.60
2023-05-21T19:39:50.118Z,5.70
2023-05-21T19:42:18.736Z,5.70
2023-05-21T19:44:46.763Z,5.77
2023-05-21T19:47:14.985Z,6.90
2023-05-21T19:49:44.392Z,6.80
2023-05-21T19:52:12.459Z,6.70
2023-05-21T19:54:40.435Z,7.10
2023-05-21T19:57:10.180Z,5.10
2023-05-21T19:59:39.533Z,5.90
2023-05-21T20:02:08.239Z,6.00
2023-05-21T20:04:36.102Z,6.47
2023-05-21T20:07:05.900Z,6.10
2023-05-21T20:09:33.812Z,7.03
2023-05-21T20:12:02.037Z,5.80
2023-05-21T20:14:33.364Z,6.53
2023-05-21T20:17:01.780Z,6.93
2023-05-21T20:19:30.464Z,6.03
2023-05-21T20:21:58.484Z,6.47
2023-05-21T20:24:27.799Z,6.07
2023-05-21T20:26:56.121Z,6.80
2023-05-21T20:29:24.067Z,6.43
2023-05-21T20:31:52.309Z,6.50
2023-05-21T20:34:21.620Z,5.83
2023-05-21T20:36:49.908Z,6.20
2023-05-21T20:39:19.031Z,5.67
2023-05-21T20:41:48.489Z,6.20
2023-05-21T20:44:16.950Z,6.13
2023-05-21T20:46:44.879Z,7.10
2023-05-21T20:49:12.829Z,6.80
2023-05-21T20:51:41.469Z,6.20
2023-05-21T20:54:12.072Z,6.60
2023-05-21T20:56:42.829Z,6.07
2023-05-21T20:59:12.913Z,6.00
2023-05-21T21:01:41.565Z,6.73
2023-05-21T21:04:09.894Z,6.60
2023-05-21T21:06:38.639Z,6.73
2023-05-21T21:09:06.707Z,6.23
2023-05-21T21:11:34.826Z,6.63
2023-05-21T21:14:03.625Z,6.77
2023-05-21T21:16:32.975Z,5.63
2023-05-21T21:19:01.003Z,5.50
2023-05-21T21:21:29.370Z,6.63
2023-05-21T21:23:57.399Z,5.47
2023-05-21T21:26:26.623Z,6.70
2023-05-21T21:28:56.154Z,6.27
2023-05-21T21:31:24.594Z,6.07
2023-05-21T21:33:57.509Z,6.33
2023-05-21T21:36:25.440Z,6.73
2023-05-21T21:38:53.363Z,6.20
2023-05-21T21:41:22.399Z,6.67
2023-05-21T21:43:51.668Z,6.80
2023-05-21T21:46:19.714Z,6.37
2023-05-21T21:48:47.648Z,6.37
2023-05-21T21:51:17.002Z,6.57
2023-05-21T21:53:45.086Z,6.53
2023-05-21T21:56:13.109Z,6.80
2023-05-21T21:58:41.078Z,6.90
2023-05-21T22:01:09.421Z,7.33
2023-05-21T22:03:37.683Z,7.60
2023-05-21T22:06:06.128Z,6.17
2023-05-21T22:08:35.398Z,7.10
2023-05-21T22:11:03.371Z,6.80
2023-05-21T22:13:31.355Z,6.63
2023-05-21T22:15:59.453Z,7.00
2023-05-21T22:18:39.654Z,6.33
2023-05-21T22:21:09.423Z,6.87
2023-05-21T22:23:39.574Z,7.10
2023-05-21T22:26:07.868Z,7.53
2023-05-21T22:28:35.962Z,7.33
2023-05-21T22:31:04.018Z,7.43
2023-05-21T22:33:32.373Z,7.60
2023-05-21T22:36:00.328Z,7.70
2023-05-21T22:38:28.505Z,7.03
2023-05-21T22:40:57.964Z,6.33
2023-05-21T22:43:27.012Z,6.70
2023-05-21T22:45:54.980Z,6.50
2023-05-21T22:48:22.963Z,7.47
2023-05-21T22:50:53.588Z,7.33
2023-05-21T22:53:21.794Z,7.80
2023-05-21T22:55:49.999Z,7.73
2023-05-21T22:58:19.503Z,8.23
2023-05-21T23:00:48.738Z,7.27
2023-05-21T23:03:17.299Z,7.53
2023-05-21T23:05:45.795Z,7.97
2023-05-21T23:08:13.948Z,7.17
2023-05-21T23:10:41.998Z,6.70
2023-05-21T23:13:09.935Z,7.63
2023-05-21T23:15:39.415Z,6.53
2023-05-21T23:18:08.806Z,8.00
2023-05-21T23:20:39.543Z,7.43
2023-05-21T23:23:07.793Z,7.03
2023-05-21T23:25:36.490Z,7.17
2023-05-21T23:28:04.675Z,7.73
2023-05-21T23:30:32.630Z,7.33
2023-05-21T23:33:02.049Z,7.70
2023-05-21T23:35:30.204Z,7.97
2023-05-21T23:37:58.376Z,7.70
2023-05-21T23:40:26.437Z,7.60
2023-05-21T23:42:54.374Z,8.33
2023-05-21T23:45:22.448Z,7.50
2023-05-21T23:47:50.511Z,6.97
2023-05-21T23:50:19.869Z,7.23
2023-05-21T23:52:47.865Z,7.50
2023-05-21T23:55:15.904Z,7.80
2023-05-21T23:57:43.798Z,7.10
